sensor_id;sensor_type;location;lat;lon;timestamp;P1;durP1;ratioP1;P2;durP2;ratioP2
44046;SDS011;29713;-33.888;151.150;2023-07-31T00:01:34;2.47;;;0.52;;
44046;SDS011;29713;-33.888;151.150;2023-07-31T00:04:01;1.27;;;0.60;;
44046;SDS011;29713;-33.888;151.150;2023-07-31T00:06:29;3.75;;;0.85;;
44046;SDS011;29713;-33.888;151.150;2023-07-31T00:08:56;2.58;;;0.80;;
44046;SDS011;29713;-33.888;151.150;2023-07-31T00:11:23;2.80;;;0.70;;
44046;SDS011;29713;-33.888;151.150;2023-07-31T00:13:52;1.13;;;0.70;;
44046;SDS011;29713;-33.888;151.150;2023-07-31T00:16:19;2.15;;;0.80;;
44046;SDS011;29713;-33.888;151.150;2023-07-31T00:18:50;1.88;;;0.70;;
44046;SDS011;29713;-33.888;151.150;2023-07-31T00:21:17;3.25;;;0.70;;
44046;SDS011;29713;-33.888;151.150;2023-07-31T00:23:44;1.33;;;0.60;;
44046;SDS011;29713;-33.888;151.150;2023-07-31T00:26:12;1.38;;;0.50;;
44046;SDS011;29713;-33.888;151.150;2023-07-31T00:28:39;2.65;;;0.63;;
44046;SDS011;29713;-33.888;151.150;2023-07-31T00:31:06;2.47;;;0.60;;
44046;SDS011;29713;-33.888;151.150;2023-07-31T00:33:34;3.40;;;0.65;;
44046;SDS011;29713;-33.888;151.150;2023-07-31T00:36:02;0.90;;;0.60;;
44046;SDS011;29713;-33.888;151.150;2023-07-31T00:38:29;2.63;;;0.77;;
44046;SDS011;29713;-33.888;151.150;2023-07-31T00:40:58;2.28;;;0.60;;
44046;SDS011;29713;-33.888;151.150;2023-07-31T00:43:25;1.55;;;0.57;;
44046;SDS011;29713;-33.888;151.150;2023-07-31T00:45:53;1.95;;;0.70;;
44046;SDS011;29713;-33.888;151.150;2023-07-31T00:48:23;1.40;;;0.55;;
44046;SDS011;29713;-33.888;151.150;2023-07-31T00:50:51;2.78;;;0.50;;
44046;SDS011;29713;-33.888;151.150;2023-07-31T00:53:18;4.00;;;0.90;;
44046;SDS011;29713;-33.888;151.150;2023-07-31T00:55:45;0.90;;;0.40;;
44046;SDS011;29713;-33.888;151.150;2023-07-31T00:58:13;1.40;;;0.50;;
44046;SDS011;29713;-33.888;151.150;2023-07-31T01:00:40;1.05;;;0.50;;
44046;SDS011;29713;-33.888;151.150;2023-07-31T01:03:08;1.95;;;0.60;;
44046;SDS011;29713;-33.888;151.150;2023-07-31T01:08:08;1.73;;;0.40;;
44046;SDS011;29713;-33.888;151.150;2023-07-31T01:10:58;1.73;;;0.50;;
44046;SDS011;29713;-33.888;151.150;2023-07-31T01:13:33;1.80;;;0.50;;
44046;SDS011;29713;-33.888;151.150;2023-07-31T01:16:01;0.88;;;0.47;;
44046;SDS011;29713;-33.888;151.150;2023-07-31T01:18:28;1.10;;;0.43;;
44046;SDS011;29713;-33.888;151.150;2023-07-31T01:20:58;1.10;;;0.57;;
44046;SDS011;29713;-33.888;151.150;2023-07-31T01:23:44;2.20;;;0.65;;
44046;SDS011;29713;-33.888;151.150;2023-07-31T01:28:56;3.50;;;0.70;;
44046;SDS011;29713;-33.888;151.150;2023-07-31T01:31:33;1.45;;;0.43;;
44046;SDS011;29713;-33.888;151.150;2023-07-31T01:34:01;0.85;;;0.35;;
44046;SDS011;29713;-33.888;151.150;2023-07-31T01:36:30;2.35;;;0.60;;
44046;SDS011;29713;-33.888;151.150;2023-07-31T01:38:58;3.05;;;0.40;;
44046;SDS011;29713;-33.888;151.150;2023-07-31T01:41:30;0.88;;;0.50;;
44046;SDS011;29713;-33.888;151.150;2023-07-31T01:43:57;3.08;;;0.50;;
44046;SDS011;29713;-33.888;151.150;2023-07-31T01:46:24;1.15;;;0.60;;
44046;SDS011;29713;-33.888;151.150;2023-07-31T01:48:52;2.38;;;0.40;;
44046;SDS011;29713;-33.888;151.150;2023-07-31T01:51:22;1.35;;;0.45;;
44046;SDS011;29713;-33.888;151.150;2023-07-31T01:53:49;4.25;;;0.60;;
44046;SDS011;29713;-33.888;151.150;2023-07-31T01:56:17;1.45;;;0.68;;
44046;SDS011;29713;-33.888;151.150;2023-07-31T01:58:44;2.28;;;0.45;;
44046;SDS011;29713;-33.888;151.150;2023-07-31T02:01:11;1.77;;;0.40;;
44046;SDS011;29713;-33.888;151.150;2023-07-31T02:03:39;1.00;;;0.50;;
44046;SDS011;29713;-33.888;151.150;2023-07-31T02:06:07;2.33;;;0.52;;
44046;SDS011;29713;-33.888;151.150;2023-07-31T02:08:35;2.33;;;0.60;;
44046;SDS011;29713;-33.888;151.150;2023-07-31T02:11:02;0.47;;;0.32;;
44046;SDS011;29713;-33.888;151.150;2023-07-31T02:13:30;1.10;;;0.40;;
44046;SDS011;29713;-33.888;151.150;2023-07-31T02:16:00;1.67;;;0.82;;
44046;SDS011;29713;-33.888;151.150;2023-07-31T02:18:28;1.90;;;0.47;;
44046;SDS011;29713;-33.888;151.150;2023-07-31T02:20:58;4.57;;;0.57;;
44046;SDS011;29713;-33.888;151.150;2023-07-31T02:23:25;1.30;;;0.60;;
44046;SDS011;29713;-33.888;151.150;2023-07-31T02:25:52;3.28;;;0.43;;
44046;SDS011;29713;-33.888;151.150;2023-07-31T02:28:20;1.23;;;0.82;;
44046;SDS011;29713;-33.888;151.150;2023-07-31T02:30:47;2.10;;;0.60;;
44046;SDS011;29713;-33.888;151.150;2023-07-31T02:33:16;2.47;;;0.82;;
44046;SDS011;29713;-33.888;151.150;2023-07-31T02:35:43;0.95;;;0.43;;
44046;SDS011;29713;-33.888;151.150;2023-07-31T02:38:10;1.40;;;0.60;;
44046;SDS011;29713;-33.888;151.150;2023-07-31T02:40:39;1.30;;;0.43;;
44046;SDS011;29713;-33.888;151.150;2023-07-31T02:43:09;1.40;;;0.70;;
44046;SDS011;29713;-33.888;151.150;2023-07-31T02:45:36;0.95;;;0.60;;
44046;SDS011;29713;-33.888;151.150;2023-07-31T02:48:07;1.23;;;0.70;;
44046;SDS011;29713;-33.888;151.150;2023-07-31T02:50:34;0.95;;;0.50;;
44046;SDS011;29713;-33.888;151.150;2023-07-31T02:53:01;1.92;;;0.52;;
44046;SDS011;29713;-33.888;151.150;2023-07-31T02:55:29;2.53;;;1.00;;
44046;SDS011;29713;-33.888;151.150;2023-07-31T02:57:56;2.28;;;0.80;;
44046;SDS011;29713;-33.888;151.150;2023-07-31T03:00:24;1.75;;;0.75;;
44046;SDS011;29713;-33.888;151.150;2023-07-31T03:02:51;2.13;;;0.70;;
44046;SDS011;29713;-33.888;151.150;2023-07-31T03:05:19;1.98;;;0.80;;
44046;SDS011;29713;-33.888;151.150;2023-07-31T03:07:46;1.52;;;0.70;;
44046;SDS011;29713;-33.888;151.150;2023-07-31T03:10:13;2.95;;;0.73;;
44046;SDS011;29713;-33.888;151.150;2023-07-31T03:12:41;2.10;;;0.70;;
44046;SDS011;29713;-33.888;151.150;2023-07-31T03:15:08;3.63;;;0.85;;
44046;SDS011;29713;-33.888;151.150;2023-07-31T03:17:36;1.08;;;0.50;;
44046;SDS011;29713;-33.888;151.150;2023-07-31T03:20:03;4.20;;;0.77;;
44046;SDS011;29713;-33.888;151.150;2023-07-31T03:22:31;3.15;;;0.75;;
44046;SDS011;29713;-33.888;151.150;2023-07-31T03:25:01;3.75;;;0.77;;
44046;SDS011;29713;-33.888;151.150;2023-07-31T03:27:31;0.60;;;0.50;;
44046;SDS011;29713;-33.888;151.150;2023-07-31T03:29:59;8.27;;;0.70;;
44046;SDS011;29713;-33.888;151.150;2023-07-31T03:32:26;3.22;;;0.60;;
44046;SDS011;29713;-33.888;151.150;2023-07-31T03:34:53;2.35;;;0.80;;
44046;SDS011;29713;-33.888;151.150;2023-07-31T03:37:21;1.08;;;0.60;;
44046;SDS011;29713;-33.888;151.150;2023-07-31T03:39:52;5.22;;;1.05;;
44046;SDS011;29713;-33.888;151.150;2023-07-31T03:42:19;3.08;;;0.57;;
44046;SDS011;29713;-33.888;151.150;2023-07-31T03:44:46;1.60;;;0.73;;
44046;SDS011;29713;-33.888;151.150;2023-07-31T03:47:14;1.27;;;0.47;;
44046;SDS011;29713;-33.888;151.150;2023-07-31T03:49:41;2.17;;;0.63;;
44046;SDS011;29713;-33.888;151.150;2023-07-31T03:52:08;1.92;;;0.63;;
44046;SDS011;29713;-33.888;151.150;2023-07-31T03:54:36;1.95;;;0.60;;
44046;SDS011;29713;-33.888;151.150;2023-07-31T03:57:03;1.42;;;0.50;;
44046;SDS011;29713;-33.888;151.150;2023-07-31T03:59:31;2.28;;;1.00;;
44046;SDS011;29713;-33.888;151.150;2023-07-31T04:01:58;0.95;;;0.50;;
44046;SDS011;29713;-33.888;151.150;2023-07-31T04:04:25;0.88;;;0.57;;
44046;SDS011;29713;-33.888;151.150;2023-07-31T04:06:52;1.15;;;0.60;;
44046;SDS011;29713;-33.888;151.150;2023-07-31T04:09:20;3.17;;;0.80;;
44046;SDS011;29713;-33.888;151.150;2023-07-31T04:11:47;1.67;;;0.60;;
44046;SDS011;29713;-33.888;151.150;2023-07-31T04:14:14;1.48;;;0.60;;
44046;SDS011;29713;-33.888;151.150;2023-07-31T04:16:42;5.05;;;0.90;;
44046;SDS011;29713;-33.888;151.150;2023-07-31T04:19:09;3.10;;;0.70;;
44046;SDS011;29713;-33.888;151.150;2023-07-31T04:21:36;1.38;;;0.60;;
44046;SDS011;29713;-33.888;151.150;2023-07-31T04:24:04;2.83;;;0.77;;
44046;SDS011;29713;-33.888;151.150;2023-07-31T04:26:31;1.85;;;0.50;;
44046;SDS011;29713;-33.888;151.150;2023-07-31T04:28:58;3.53;;;0.80;;
44046;SDS011;29713;-33.888;151.150;2023-07-31T04:31:26;4.43;;;0.65;;
44046;SDS011;29713;-33.888;151.150;2023-07-31T04:33:53;2.08;;;0.90;;
44046;SDS011;29713;-33.888;151.150;2023-07-31T04:36:20;1.05;;;0.60;;
44046;SDS011;29713;-33.888;151.150;2023-07-31T04:38:48;2.75;;;0.77;;
44046;SDS011;29713;-33.888;151.150;2023-07-31T04:41:15;3.88;;;0.75;;
44046;SDS011;29713;-33.888;151.150;2023-07-31T04:43:42;1.65;;;0.70;;
44046;SDS011;29713;-33.888;151.150;2023-07-31T04:46:09;2.30;;;0.77;;
44046;SDS011;29713;-33.888;151.150;2023-07-31T04:48:37;3.25;;;0.82;;
44046;SDS011;29713;-33.888;151.150;2023-07-31T04:51:04;7.90;;;1.08;;
44046;SDS011;29713;-33.888;151.150;2023-07-31T04:53:32;1.95;;;0.55;;
44046;SDS011;29713;-33.888;151.150;2023-07-31T04:55:59;2.40;;;0.60;;
44046;SDS011;29713;-33.888;151.150;2023-07-31T04:58:27;1.38;;;0.40;;
44046;SDS011;29713;-33.888;151.150;2023-07-31T05:00:54;2.03;;;0.85;;
44046;SDS011;29713;-33.888;151.150;2023-07-31T05:03:21;5.38;;;0.70;;
44046;SDS011;29713;-33.888;151.150;2023-07-31T05:05:49;2.15;;;0.80;;
44046;SDS011;29713;-33.888;151.150;2023-07-31T05:08:20;0.80;;;0.57;;
44046;SDS011;29713;-33.888;151.150;2023-07-31T05:10:47;2.65;;;0.50;;
44046;SDS011;29713;-33.888;151.150;2023-07-31T05:13:14;3.78;;;0.70;;
44046;SDS011;29713;-33.888;151.150;2023-07-31T05:15:41;1.75;;;0.63;;
44046;SDS011;29713;-33.888;151.150;2023-07-31T05:18:09;1.50;;;0.70;;
44046;SDS011;29713;-33.888;151.150;2023-07-31T05:20:36;1.65;;;0.65;;
44046;SDS011;29713;-33.888;151.150;2023-07-31T05:23:03;1.27;;;0.50;;
44046;SDS011;29713;-33.888;151.150;2023-07-31T05:25:31;3.33;;;0.80;;
44046;SDS011;29713;-33.888;151.150;2023-07-31T05:27:58;1.95;;;0.70;;
44046;SDS011;29713;-33.888;151.150;2023-07-31T05:30:25;1.58;;;0.65;;
44046;SDS011;29713;-33.888;151.150;2023-07-31T05:32:53;1.77;;;0.60;;
44046;SDS011;29713;-33.888;151.150;2023-07-31T05:35:20;5.38;;;0.70;;
44046;SDS011;29713;-33.888;151.150;2023-07-31T05:37:48;5.40;;;0.80;;
44046;SDS011;29713;-33.888;151.150;2023-07-31T05:40:15;1.13;;;0.60;;
44046;SDS011;29713;-33.888;151.150;2023-07-31T05:42:42;4.72;;;0.82;;
44046;SDS011;29713;-33.888;151.150;2023-07-31T05:45:15;2.22;;;0.43;;
44046;SDS011;29713;-33.888;151.150;2023-07-31T05:47:42;1.27;;;0.50;;
44046;SDS011;29713;-33.888;151.150;2023-07-31T05:50:10;2.70;;;0.70;;
44046;SDS011;29713;-33.888;151.150;2023-07-31T05:52:37;2.85;;;0.75;;
44046;SDS011;29713;-33.888;151.150;2023-07-31T05:55:04;1.08;;;0.63;;
44046;SDS011;29713;-33.888;151.150;2023-07-31T05:57:33;3.78;;;0.60;;
44046;SDS011;29713;-33.888;151.150;2023-07-31T06:00:02;1.85;;;0.52;;
44046;SDS011;29713;-33.888;151.150;2023-07-31T06:02:29;1.15;;;0.65;;
44046;SDS011;29713;-33.888;151.150;2023-07-31T06:04:58;3.40;;;0.52;;
44046;SDS011;29713;-33.888;151.150;2023-07-31T06:07:26;1.27;;;0.50;;
44046;SDS011;29713;-33.888;151.150;2023-07-31T06:09:54;3.03;;;0.60;;
44046;SDS011;29713;-33.888;151.150;2023-07-31T06:12:23;2.67;;;0.82;;
44046;SDS011;29713;-33.888;151.150;2023-07-31T06:14:50;1.15;;;0.52;;
44046;SDS011;29713;-33.888;151.150;2023-07-31T06:17:18;2.38;;;0.65;;
44046;SDS011;29713;-33.888;151.150;2023-07-31T06:19:47;1.80;;;0.60;;
44046;SDS011;29713;-33.888;151.150;2023-07-31T06:22:15;1.95;;;0.50;;
44046;SDS011;29713;-33.888;151.150;2023-07-31T06:24:43;4.32;;;0.73;;
44046;SDS011;29713;-33.888;151.150;2023-07-31T06:27:11;0.70;;;0.50;;
44046;SDS011;29713;-33.888;151.150;2023-07-31T06:29:38;1.00;;;0.50;;
44046;SDS011;29713;-33.888;151.150;2023-07-31T06:32:06;0.77;;;0.43;;
44046;SDS011;29713;-33.888;151.150;2023-07-31T06:34:34;1.27;;;0.50;;
44046;SDS011;29713;-33.888;151.150;2023-07-31T06:37:01;1.40;;;0.57;;
44046;SDS011;29713;-33.888;151.150;2023-07-31T06:39:28;2.00;;;0.45;;
44046;SDS011;29713;-33.888;151.150;2023-07-31T06:41:56;1.85;;;0.60;;
44046;SDS011;29713;-33.888;151.150;2023-07-31T06:44:23;1.33;;;0.70;;
44046;SDS011;29713;-33.888;151.150;2023-07-31T06:46:50;1.55;;;0.60;;
44046;SDS011;29713;-33.888;151.150;2023-07-31T06:49:18;2.58;;;0.85;;
44046;SDS011;29713;-33.888;151.150;2023-07-31T06:51:45;2.38;;;0.60;;
44046;SDS011;29713;-33.888;151.150;2023-07-31T06:54:12;1.90;;;0.70;;
44046;SDS011;29713;-33.888;151.150;2023-07-31T06:56:40;1.50;;;0.70;;
44046;SDS011;29713;-33.888;151.150;2023-07-31T06:59:07;3.13;;;1.40;;
44046;SDS011;29713;-33.888;151.150;2023-07-31T07:01:34;3.50;;;1.30;;
44046;SDS011;29713;-33.888;151.150;2023-07-31T07:04:02;2.58;;;0.95;;
44046;SDS011;29713;-33.888;151.150;2023-07-31T07:06:29;3.45;;;0.80;;
44046;SDS011;29713;-33.888;151.150;2023-07-31T07:08:56;3.17;;;0.95;;
44046;SDS011;29713;-33.888;151.150;2023-07-31T07:11:24;2.15;;;0.70;;
44046;SDS011;29713;-33.888;151.150;2023-07-31T07:13:51;1.50;;;1.00;;
44046;SDS011;29713;-33.888;151.150;2023-07-31T07:16:19;1.33;;;0.75;;
44046;SDS011;29713;-33.888;151.150;2023-07-31T07:18:46;1.58;;;0.75;;
44046;SDS011;29713;-33.888;151.150;2023-07-31T07:21:13;1.10;;;0.75;;
44046;SDS011;29713;-33.888;151.150;2023-07-31T07:23:43;1.33;;;0.77;;
44046;SDS011;29713;-33.888;151.150;2023-07-31T07:26:11;3.78;;;0.70;;
44046;SDS011;29713;-33.888;151.150;2023-07-31T07:28:38;2.10;;;0.80;;
44046;SDS011;29713;-33.888;151.150;2023-07-31T07:31:05;0.70;;;0.60;;
44046;SDS011;29713;-33.888;151.150;2023-07-31T07:33:33;1.85;;;0.93;;
44046;SDS011;29713;-33.888;151.150;2023-07-31T07:36:01;1.35;;;0.77;;
44046;SDS011;29713;-33.888;151.150;2023-07-31T07:38:28;3.20;;;1.00;;
44046;SDS011;29713;-33.888;151.150;2023-07-31T07:40:56;1.73;;;1.13;;
44046;SDS011;29713;-33.888;151.150;2023-07-31T07:43:23;1.88;;;1.10;;
44046;SDS011;29713;-33.888;151.150;2023-07-31T07:45:50;1.30;;;1.02;;
44046;SDS011;29713;-33.888;151.150;2023-07-31T07:48:18;1.80;;;1.00;;
44046;SDS011;29713;-33.888;151.150;2023-07-31T07:50:46;4.32;;;0.80;;
44046;SDS011;29713;-33.888;151.150;2023-07-31T07:53:17;2.47;;;0.80;;
44046;SDS011;29713;-33.888;151.150;2023-07-31T07:55:44;1.50;;;0.80;;
44046;SDS011;29713;-33.888;151.150;2023-07-31T07:58:12;2.03;;;1.00;;
44046;SDS011;29713;-33.888;151.150;2023-07-31T08:00:39;2.58;;;1.20;;
44046;SDS011;29713;-33.888;151.150;2023-07-31T08:03:06;1.60;;;1.00;;
44046;SDS011;29713;-33.888;151.150;2023-07-31T08:05:35;1.67;;;1.40;;
44046;SDS011;29713;-33.888;151.150;2023-07-31T08:08:02;2.25;;;1.10;;
44046;SDS011;29713;-33.888;151.150;2023-07-31T08:10:29;1.95;;;1.08;;
44046;SDS011;29713;-33.888;151.150;2023-07-31T08:12:57;1.33;;;1.00;;
44046;SDS011;29713;-33.888;151.150;2023-07-31T08:15:24;1.23;;;1.13;;
44046;SDS011;29713;-33.888;151.150;2023-07-31T08:17:51;1.83;;;1.08;;
44046;SDS011;29713;-33.888;151.150;2023-07-31T08:20:19;2.30;;;1.48;;
44046;SDS011;29713;-33.888;151.150;2023-07-31T08:22:46;3.05;;;1.55;;
44046;SDS011;29713;-33.888;151.150;2023-07-31T08:25:13;2.63;;;1.58;;
44046;SDS011;29713;-33.888;151.150;2023-07-31T08:27:44;4.93;;;2.15;;
44046;SDS011;29713;-33.888;151.150;2023-07-31T08:30:12;3.42;;;1.75;;
44046;SDS011;29713;-33.888;151.150;2023-07-31T08:32:39;4.30;;;1.85;;
44046;SDS011;29713;-33.888;151.150;2023-07-31T08:35:06;5.63;;;1.95;;
44046;SDS011;29713;-33.888;151.150;2023-07-31T08:37:34;3.58;;;1.83;;
44046;SDS011;29713;-33.888;151.150;2023-07-31T08:40:01;3.40;;;2.30;;
44046;SDS011;29713;-33.888;151.150;2023-07-31T08:42:29;4.10;;;2.08;;
44046;SDS011;29713;-33.888;151.150;2023-07-31T08:44:58;3.65;;;1.95;;
44046;SDS011;29713;-33.888;151.150;2023-07-31T08:47:27;5.45;;;2.53;;
44046;SDS011;29713;-33.888;151.150;2023-07-31T08:49:55;7.28;;;2.97;;
44046;SDS011;29713;-33.888;151.150;2023-07-31T08:52:23;8.20;;;3.05;;
44046;SDS011;29713;-33.888;151.150;2023-07-31T08:54:50;5.43;;;2.65;;
44046;SDS011;29713;-33.888;151.150;2023-07-31T08:57:18;5.13;;;2.30;;
44046;SDS011;29713;-33.888;151.150;2023-07-31T08:59:45;5.25;;;2.15;;
44046;SDS011;29713;-33.888;151.150;2023-07-31T09:02:13;6.78;;;3.70;;
44046;SDS011;29713;-33.888;151.150;2023-07-31T09:04:43;5.78;;;2.90;;
44046;SDS011;29713;-33.888;151.150;2023-07-31T09:07:10;6.10;;;3.63;;
44046;SDS011;29713;-33.888;151.150;2023-07-31T09:09:40;4.28;;;3.13;;
44046;SDS011;29713;-33.888;151.150;2023-07-31T09:12:07;9.95;;;3.45;;
44046;SDS011;29713;-33.888;151.150;2023-07-31T09:14:35;6.35;;;3.40;;
44046;SDS011;29713;-33.888;151.150;2023-07-31T09:17:03;5.65;;;2.88;;
44046;SDS011;29713;-33.888;151.150;2023-07-31T09:19:35;5.43;;;2.75;;
44046;SDS011;29713;-33.888;151.150;2023-07-31T09:22:04;4.07;;;2.38;;
44046;SDS011;29713;-33.888;151.150;2023-07-31T09:24:33;6.35;;;2.67;;
44046;SDS011;29713;-33.888;151.150;2023-07-31T09:27:01;7.20;;;2.95;;
44046;SDS011;29713;-33.888;151.150;2023-07-31T09:29:29;6.10;;;2.72;;
44046;SDS011;29713;-33.888;151.150;2023-07-31T09:31:56;7.28;;;2.72;;
44046;SDS011;29713;-33.888;151.150;2023-07-31T09:34:36;7.82;;;2.58;;
44046;SDS011;29713;-33.888;151.150;2023-07-31T09:37:05;6.28;;;2.28;;
44046;SDS011;29713;-33.888;151.150;2023-07-31T09:39:32;4.13;;;2.03;;
44046;SDS011;29713;-33.888;151.150;2023-07-31T09:42:24;4.63;;;2.55;;
44046;SDS011;29713;-33.888;151.150;2023-07-31T09:44:52;4.60;;;2.57;;
44046;SDS011;29713;-33.888;151.150;2023-07-31T09:47:22;10.20;;;2.57;;
44046;SDS011;29713;-33.888;151.150;2023-07-31T09:49:50;4.72;;;2.85;;
44046;SDS011;29713;-33.888;151.150;2023-07-31T09:52:18;5.30;;;2.33;;
44046;SDS011;29713;-33.888;151.150;2023-07-31T09:54:46;5.47;;;2.57;;
44046;SDS011;29713;-33.888;151.150;2023-07-31T09:57:14;5.87;;;2.50;;
44046;SDS011;29713;-33.888;151.150;2023-07-31T09:59:47;5.40;;;2.60;;
44046;SDS011;29713;-33.888;151.150;2023-07-31T10:02:20;6.57;;;3.10;;
44046;SDS011;29713;-33.888;151.150;2023-07-31T10:04:51;5.77;;;3.40;;
44046;SDS011;29713;-33.888;151.150;2023-07-31T10:07:24;8.68;;;3.72;;
44046;SDS011;29713;-33.888;151.150;2023-07-31T10:09:54;4.67;;;3.40;;
44046;SDS011;29713;-33.888;151.150;2023-07-31T10:12:22;6.20;;;3.38;;
44046;SDS011;29713;-33.888;151.150;2023-07-31T10:14:56;4.15;;;3.17;;
44046;SDS011;29713;-33.888;151.150;2023-07-31T10:17:24;10.03;;;3.93;;
44046;SDS011;29713;-33.888;151.150;2023-07-31T10:19:52;13.93;;;5.60;;
44046;SDS011;29713;-33.888;151.150;2023-07-31T10:22:20;18.50;;;5.97;;
44046;SDS011;29713;-33.888;151.150;2023-07-31T10:24:48;11.07;;;5.10;;
44046;SDS011;29713;-33.888;151.150;2023-07-31T10:27:19;8.60;;;3.97;;
44046;SDS011;29713;-33.888;151.150;2023-07-31T10:29:47;6.07;;;2.77;;
44046;SDS011;29713;-33.888;151.150;2023-07-31T10:32:15;5.63;;;2.60;;
44046;SDS011;29713;-33.888;151.150;2023-07-31T10:34:45;4.27;;;2.30;;
44046;SDS011;29713;-33.888;151.150;2023-07-31T10:37:20;6.73;;;2.53;;
44046;SDS011;29713;-33.888;151.150;2023-07-31T10:39:56;4.27;;;2.03;;
44046;SDS011;29713;-33.888;151.150;2023-07-31T10:42:45;2.93;;;1.80;;
44046;SDS011;29713;-33.888;151.150;2023-07-31T10:45:31;3.97;;;1.60;;
44046;SDS011;29713;-33.888;151.150;2023-07-31T10:48:02;5.40;;;1.97;;
44046;SDS011;29713;-33.888;151.150;2023-07-31T10:50:32;4.83;;;1.93;;
44046;SDS011;29713;-33.888;151.150;2023-07-31T10:53:32;3.92;;;1.77;;
44046;SDS011;29713;-33.888;151.150;2023-07-31T10:56:00;3.97;;;2.25;;
44046;SDS011;29713;-33.888;151.150;2023-07-31T10:58:28;2.60;;;1.83;;
44046;SDS011;29713;-33.888;151.150;2023-07-31T11:00:59;4.93;;;2.07;;
44046;SDS011;29713;-33.888;151.150;2023-07-31T11:03:41;3.25;;;1.80;;
44046;SDS011;29713;-33.888;151.150;2023-07-31T11:06:10;3.33;;;1.90;;
44046;SDS011;29713;-33.888;151.150;2023-07-31T11:08:49;3.50;;;1.88;;
44046;SDS011;29713;-33.888;151.150;2023-07-31T11:11:19;4.65;;;1.70;;
44046;SDS011;29713;-33.888;151.150;2023-07-31T11:13:48;3.23;;;1.70;;
44046;SDS011;29713;-33.888;151.150;2023-07-31T11:16:20;4.30;;;2.27;;
44046;SDS011;29713;-33.888;151.150;2023-07-31T11:18:49;4.38;;;1.85;;
44046;SDS011;29713;-33.888;151.150;2023-07-31T11:21:19;5.57;;;1.80;;
44046;SDS011;29713;-33.888;151.150;2023-07-31T11:23:49;2.78;;;2.00;;
44046;SDS011;29713;-33.888;151.150;2023-07-31T11:26:23;3.70;;;2.00;;
44046;SDS011;29713;-33.888;151.150;2023-07-31T11:28:51;4.85;;;2.17;;
44046;SDS011;29713;-33.888;151.150;2023-07-31T11:31:21;3.63;;;1.80;;
44046;SDS011;29713;-33.888;151.150;2023-07-31T11:33:49;2.77;;;1.67;;
44046;SDS011;29713;-33.888;151.150;2023-07-31T11:36:17;2.67;;;1.40;;
44046;SDS011;29713;-33.888;151.150;2023-07-31T11:38:45;3.90;;;1.80;;
44046;SDS011;29713;-33.888;151.150;2023-07-31T11:41:14;2.27;;;1.53;;
44046;SDS011;29713;-33.888;151.150;2023-07-31T11:43:42;4.13;;;2.00;;
44046;SDS011;29713;-33.888;151.150;2023-07-31T11:46:09;2.57;;;1.47;;
44046;SDS011;29713;-33.888;151.150;2023-07-31T11:48:37;2.23;;;1.43;;
44046;SDS011;29713;-33.888;151.150;2023-07-31T11:51:07;2.87;;;1.57;;
44046;SDS011;29713;-33.888;151.150;2023-07-31T11:53:47;2.87;;;1.50;;
44046;SDS011;29713;-33.888;151.150;2023-07-31T11:56:20;3.07;;;1.40;;
44046;SDS011;29713;-33.888;151.150;2023-07-31T11:58:58;2.30;;;1.30;;
44046;SDS011;29713;-33.888;151.150;2023-07-31T12:01:31;2.80;;;1.40;;
44046;SDS011;29713;-33.888;151.150;2023-07-31T12:03:59;3.13;;;1.40;;
44046;SDS011;29713;-33.888;151.150;2023-07-31T12:06:33;2.77;;;1.20;;
44046;SDS011;29713;-33.888;151.150;2023-07-31T12:09:04;2.20;;;1.30;;
44046;SDS011;29713;-33.888;151.150;2023-07-31T12:11:42;4.40;;;1.27;;
44046;SDS011;29713;-33.888;151.150;2023-07-31T12:14:20;2.87;;;1.00;;
44046;SDS011;29713;-33.888;151.150;2023-07-31T12:16:56;2.73;;;1.07;;
44046;SDS011;29713;-33.888;151.150;2023-07-31T12:19:33;2.70;;;1.23;;
44046;SDS011;29713;-33.888;151.150;2023-07-31T12:22:00;2.70;;;1.37;;
44046;SDS011;29713;-33.888;151.150;2023-07-31T12:24:28;2.67;;;1.60;;
44046;SDS011;29713;-33.888;151.150;2023-07-31T12:26:55;2.73;;;1.33;;
44046;SDS011;29713;-33.888;151.150;2023-07-31T12:29:23;3.93;;;1.63;;
44046;SDS011;29713;-33.888;151.150;2023-07-31T12:32:00;2.87;;;1.40;;
44046;SDS011;29713;-33.888;151.150;2023-07-31T12:34:27;4.00;;;1.50;;
44046;SDS011;29713;-33.888;151.150;2023-07-31T12:36:57;3.33;;;1.27;;
44046;SDS011;29713;-33.888;151.150;2023-07-31T12:39:25;1.80;;;1.10;;
44046;SDS011;29713;-33.888;151.150;2023-07-31T12:41:52;1.87;;;1.40;;
44046;SDS011;29713;-33.888;151.150;2023-07-31T12:44:20;2.10;;;1.40;;
44046;SDS011;29713;-33.888;151.150;2023-07-31T12:46:47;4.07;;;1.70;;
44046;SDS011;29713;-33.888;151.150;2023-07-31T12:49:14;2.13;;;1.30;;
44046;SDS011;29713;-33.888;151.150;2023-07-31T12:51:42;2.80;;;1.40;;
44046;SDS011;29713;-33.888;151.150;2023-07-31T12:54:09;3.07;;;1.50;;
44046;SDS011;29713;-33.888;151.150;2023-07-31T12:56:39;2.53;;;1.47;;
44046;SDS011;29713;-33.888;151.150;2023-07-31T12:59:07;2.83;;;1.50;;
44046;SDS011;29713;-33.888;151.150;2023-07-31T13:01:34;4.23;;;1.40;;
44046;SDS011;29713;-33.888;151.150;2023-07-31T13:04:02;4.30;;;1.70;;
44046;SDS011;29713;-33.888;151.150;2023-07-31T13:06:29;2.03;;;1.17;;
44046;SDS011;29713;-33.888;151.150;2023-07-31T13:08:58;3.17;;;1.60;;
44046;SDS011;29713;-33.888;151.150;2023-07-31T13:11:25;3.70;;;1.33;;
44046;SDS011;29713;-33.888;151.150;2023-07-31T13:13:53;2.30;;;1.40;;
44046;SDS011;29713;-33.888;151.150;2023-07-31T13:16:20;2.33;;;1.20;;
44046;SDS011;29713;-33.888;151.150;2023-07-31T13:18:47;2.30;;;1.33;;
44046;SDS011;29713;-33.888;151.150;2023-07-31T13:21:17;2.13;;;1.10;;
44046;SDS011;29713;-33.888;151.150;2023-07-31T13:23:44;4.30;;;1.50;;
44046;SDS011;29713;-33.888;151.150;2023-07-31T13:26:11;3.00;;;1.40;;
44046;SDS011;29713;-33.888;151.150;2023-07-31T13:28:39;3.07;;;1.30;;
44046;SDS011;29713;-33.888;151.150;2023-07-31T13:31:06;3.83;;;1.60;;
44046;SDS011;29713;-33.888;151.150;2023-07-31T13:33:33;3.00;;;1.30;;
44046;SDS011;29713;-33.888;151.150;2023-07-31T13:36:01;2.97;;;1.40;;
44046;SDS011;29713;-33.888;151.150;2023-07-31T13:38:28;2.00;;;1.40;;
44046;SDS011;29713;-33.888;151.150;2023-07-31T13:40:55;2.83;;;1.50;;
44046;SDS011;29713;-33.888;151.150;2023-07-31T13:43:23;2.10;;;1.20;;
44046;SDS011;29713;-33.888;151.150;2023-07-31T13:45:50;1.40;;;1.10;;
44046;SDS011;29713;-33.888;151.150;2023-07-31T13:48:18;3.63;;;1.57;;
44046;SDS011;29713;-33.888;151.150;2023-07-31T13:50:45;2.57;;;1.50;;
44046;SDS011;29713;-33.888;151.150;2023-07-31T13:53:12;3.80;;;1.30;;
44046;SDS011;29713;-33.888;151.150;2023-07-31T13:55:40;2.97;;;1.47;;
44046;SDS011;29713;-33.888;151.150;2023-07-31T13:58:10;3.83;;;1.10;;
44046;SDS011;29713;-33.888;151.150;2023-07-31T14:00:38;2.37;;;1.20;;
44046;SDS011;29713;-33.888;151.150;2023-07-31T14:03:05;1.53;;;1.17;;
44046;SDS011;29713;-33.888;151.150;2023-07-31T14:05:32;3.43;;;1.30;;
44046;SDS011;29713;-33.888;151.150;2023-07-31T14:08:00;1.97;;;1.20;;
44046;SDS011;29713;-33.888;151.150;2023-07-31T14:10:27;3.40;;;1.07;;
44046;SDS011;29713;-33.888;151.150;2023-07-31T14:12:54;2.60;;;1.07;;
44046;SDS011;29713;-33.888;151.150;2023-07-31T14:15:22;2.50;;;1.00;;
44046;SDS011;29713;-33.888;151.150;2023-07-31T14:17:49;2.97;;;1.10;;
44046;SDS011;29713;-33.888;151.150;2023-07-31T14:20:17;1.70;;;0.93;;
44046;SDS011;29713;-33.888;151.150;2023-07-31T14:22:44;3.83;;;1.30;;